Time;durP1;ratioP1;P1;durP2;ratioP2;P2;SDS_P1;SDS_P2;PMS_P1;PMS_P2;Temp;Humidity;BMP_temperature;BMP_pressure;BME280_temperature;BME280_humidity;BME280_pressure;Samples;Min_cycle;Max_cycle;Signal;HPM_P1;HPM_P2
2023/03/03 00:01:34;;;;;;;12.47;8.37;;;;;;;;;;4941803;29;20261;-78
2023/03/03 00:03:59;;;;;;;14.60;10.17;;;;;;;;;;4936788;29;20180;-77
2023/03/03 00:06:25;;;;;;;16.07;9.23;;;;;;;;;;4937230;29;20193;-77
2023/03/03 00:08:51;;;;;;;16.90;10.30;;;;;;;;;;4940164;29;20208;-78
2023/03/03 00:11:16;;;;;;;13.23;9.70;;;;;;;;;;4937135;29;20190;-77
2023/03/03 00:13:42;;;;;;;15.17;10.53;;;;;;;;;;4942880;29;20636;-77
2023/03/03 00:16:10;;;;;;;17.53;10.67;;;;;;;;;;4938073;29;20575;-78
2023/03/03 00:18:36;;;;;;;16.87;9.90;;;;;;;;;;4952718;28;20248;-78
2023/03/03 00:21:02;;;;;;;13.83;9.30;;;;;;;;;;4936618;29;20539;-78
2023/03/03 00:23:38;;;;;;;13.37;8.77;;;;;;;;;;4935446;29;20188;-77
2023/03/03 00:26:21;;;;;;;12.03;8.63;;;;;;;;;;4936024;29;20196;-78
2023/03/03 00:28:48;;;;;;;15.93;9.23;;;;;;;;;;4934022;29;20296;-78
2023/03/03 00:31:15;;;;;;;18.03;9.37;;;;;;;;;;4950662;28;20282;-77
2023/03/03 00:33:44;;;;;;;14.50;8.87;;;;;;;;;;4935847;29;20162;-77
2023/03/03 00:36:20;;;;;;;13.57;9.03;;;;;;;;;;4936344;29;20182;-78
2023/03/03 00:38:46;;;;;;;13.33;8.77;;;;;;;;;;4957925;28;20233;-77
2023/03/03 00:41:27;;;;;;;16.50;9.27;;;;;;;;;;4948740;29;20193;-78
2023/03/03 00:43:52;;;;;;;17.40;9.30;;;;;;;;;;4962514;28;20758;-77
2023/03/03 00:46:19;;;;;;;14.03;8.47;;;;;;;;;;4945191;29;20209;-78
2023/03/03 00:48:44;;;;;;;14.97;9.23;;;;;;;;;;4945332;29;20284;-78
2023/03/03 00:51:19;;;;;;;17.80;9.93;;;;;;;;;;4949038;29;20209;-77
2023/03/03 00:53:44;;;;;;;16.27;9.00;;;;;;;;;;4946853;29;20195;-77
2023/03/03 00:56:09;;;;;;;16.03;9.70;;;;;;;;;;4939085;29;20185;-77
2023/03/03 00:58:34;;;;;;;15.30;9.53;;;;;;;;;;4935362;29;20257;-78
2023/03/03 01:01:00;;;;;;;16.30;9.13;;;;;;;;;;4948847;28;20177;-78
2023/03/03 01:03:25;;;;;;;16.40;10.10;;;;;;;;;;4936360;29;20186;-78
2023/03/03 01:05:51;;;;;;;16.17;8.40;;;;;;;;;;4938878;29;20206;-78
2023/03/03 01:08:18;;;;;;;17.07;10.37;;;;;;;;;;4950144;28;20686;-78
2023/03/03 01:10:49;;;;;;;17.43;10.10;;;;;;;;;;4932908;29;20608;-78
2023/03/03 01:13:15;;;;;;;20.07;9.93;;;;;;;;;;4953453;28;20186;-78
2023/03/03 01:15:40;;;;;;;20.20;10.83;;;;;;;;;;4938012;29;20179;-78
2023/03/03 01:18:05;;;;;;;19.53;10.57;;;;;;;;;;4935627;29;20395;-78
2023/03/03 01:20:31;;;;;;;19.50;10.80;;;;;;;;;;4936282;29;20217;-77
2023/03/03 01:22:56;;;;;;;18.83;10.63;;;;;;;;;;4935670;29;20185;-78
2023/03/03 01:25:21;;;;;;;16.27;9.60;;;;;;;;;;4934425;29;20173;-77
2023/03/03 01:27:46;;;;;;;18.67;10.83;;;;;;;;;;4934504;28;20203;-77
2023/03/03 01:30:12;;;;;;;20.70;11.13;;;;;;;;;;4936205;29;20237;-78
2023/03/03 01:32:37;;;;;;;22.23;11.93;;;;;;;;;;4935808;29;20181;-78
2023/03/03 01:35:02;;;;;;;22.97;12.70;;;;;;;;;;4951312;28;20189;-77
2023/03/03 01:37:28;;;;;;;26.67;13.43;;;;;;;;;;4935094;28;20189;-78
2023/03/03 01:39:53;;;;;;;20.27;11.67;;;;;;;;;;4935814;29;20209;-78
2023/03/03 01:42:19;;;;;;;18.80;11.13;;;;;;;;;;4942470;29;20200;-78
2023/03/03 01:44:44;;;;;;;18.37;12.50;;;;;;;;;;4934570;29;20178;-78
2023/03/03 01:47:16;;;;;;;20.27;12.13;;;;;;;;;;4934323;29;20538;-77
2023/03/03 01:49:46;;;;;;;24.33;12.33;;;;;;;;;;4935748;29;20221;-78
2023/03/03 01:52:17;;;;;;;19.83;11.00;;;;;;;;;;4938245;28;20633;-77
2023/03/03 01:54:46;;;;;;;24.33;13.27;;;;;;;;;;4935541;29;20185;-78
2023/03/03 01:57:14;;;;;;;19.30;11.13;;;;;;;;;;4942311;29;20264;-78
2023/03/03 01:59:41;;;;;;;20.70;11.53;;;;;;;;;;4943892;28;20212;-77
2023/03/03 02:02:06;;;;;;;22.57;12.27;;;;;;;;;;4932998;29;20582;-78
2023/03/03 02:04:33;;;;;;;23.07;12.00;;;;;;;;;;4938234;29;20178;-77
2023/03/03 02:07:00;;;;;;;20.47;12.10;;;;;;;;;;4939211;29;20281;-78
2023/03/03 02:09:44;;;;;;;23.90;12.33;;;;;;;;;;4950081;28;20200;-78
2023/03/03 02:12:11;;;;;;;23.13;13.00;;;;;;;;;;4951383;28;20179;-77
2023/03/03 02:14:36;;;;;;;25.37;13.40;;;;;;;;;;4956011;28;20687;-78
2023/03/03 02:17:01;;;;;;;21.37;12.87;;;;;;;;;;4946131;29;20181;-77
2023/03/03 02:19:45;;;;;;;23.17;14.37;;;;;;;;;;4938250;29;20216;-77
2023/03/03 02:22:12;;;;;;;24.47;12.87;;;;;;;;;;4938586;29;20612;-77
2023/03/03 02:24:44;;;;;;;25.37;13.27;;;;;;;;;;4937552;29;20301;-78
2023/03/03 02:27:09;;;;;;;25.27;13.83;;;;;;;;;;4938203;29;20226;-78
2023/03/03 02:29:34;;;;;;;22.37;12.87;;;;;;;;;;4937638;28;20708;-77
2023/03/03 02:32:00;;;;;;;24.47;13.77;;;;;;;;;;4951591;28;20303;-78
2023/03/03 02:34:25;;;;;;;22.50;13.27;;;;;;;;;;4937328;29;20648;-78
2023/03/03 02:36:50;;;;;;;20.20;11.73;;;;;;;;;;4938148;29;20656;-77
2023/03/03 02:39:17;;;;;;;23.00;12.37;;;;;;;;;;4951833;28;20272;-77
2023/03/03 02:41:52;;;;;;;26.40;13.83;;;;;;;;;;4938781;28;20189;-78
2023/03/03 02:44:22;;;;;;;25.70;12.90;;;;;;;;;;4940708;29;20272;-78
2023/03/03 02:46:48;;;;;;;22.73;12.17;;;;;;;;;;4940810;28;20265;-78
2023/03/03 02:49:15;;;;;;;27.57;14.93;;;;;;;;;;4939138;29;20232;-77
2023/03/03 02:51:41;;;;;;;25.50;12.97;;;;;;;;;;4940931;29;20740;-78
2023/03/03 02:54:07;;;;;;;24.67;12.10;;;;;;;;;;4946399;29;20225;-78
2023/03/03 02:56:33;;;;;;;25.57;12.57;;;;;;;;;;4940763;28;20280;-76
2023/03/03 02:58:58;;;;;;;25.67;13.60;;;;;;;;;;4937736;29;20292;-76
2023/03/03 03:01:23;;;;;;;25.13;14.90;;;;;;;;;;4954025;28;20187;-77
2023/03/03 03:03:48;;;;;;;26.77;13.50;;;;;;;;;;4937833;29;20174;-76
2023/03/03 03:06:14;;;;;;;26.03;14.10;;;;;;;;;;4938679;29;20170;-76
2023/03/03 03:08:39;;;;;;;28.77;14.43;;;;;;;;;;4941824;29;20198;-76
2023/03/03 03:11:04;;;;;;;27.70;14.33;;;;;;;;;;4957389;28;20200;-76
2023/03/03 03:13:30;;;;;;;28.27;14.20;;;;;;;;;;4935964;29;20537;-78
2023/03/03 03:15:56;;;;;;;29.20;14.20;;;;;;;;;;4936677;29;20178;-76
2023/03/03 03:18:21;;;;;;;32.13;15.30;;;;;;;;;;4936220;29;20189;-79
2023/03/03 03:20:46;;;;;;;31.33;15.73;;;;;;;;;;4940127;29;20190;-76
2023/03/03 03:23:11;;;;;;;30.47;15.73;;;;;;;;;;4944752;29;20272;-76
2023/03/03 03:25:44;;;;;;;29.07;14.80;;;;;;;;;;4939521;29;20275;-76
2023/03/03 03:28:09;;;;;;;31.50;15.47;;;;;;;;;;4941535;29;20289;-76
2023/03/03 03:30:34;;;;;;;26.30;14.40;;;;;;;;;;4945747;29;20209;-79
2023/03/03 03:33:00;;;;;;;28.97;13.47;;;;;;;;;;4937933;29;20276;-78
2023/03/03 03:35:25;;;;;;;32.00;14.67;;;;;;;;;;4942683;29;20197;-78
2023/03/03 03:37:50;;;;;;;29.47;14.00;;;;;;;;;;4935972;29;20181;-78
2023/03/03 03:40:15;;;;;;;26.20;13.90;;;;;;;;;;4939852;29;20209;-79
2023/03/03 03:42:40;;;;;;;32.77;14.07;;;;;;;;;;4937005;29;20178;-78
2023/03/03 03:45:06;;;;;;;29.13;13.83;;;;;;;;;;4951913;28;20186;-79
2023/03/03 03:47:31;;;;;;;31.53;15.20;;;;;;;;;;4938316;29;20174;-75
2023/03/03 03:49:56;;;;;;;27.43;13.07;;;;;;;;;;4938424;29;20284;-76
2023/03/03 03:52:21;;;;;;;30.77;15.17;;;;;;;;;;4937411;29;20185;-79
2023/03/03 03:54:47;;;;;;;30.93;13.50;;;;;;;;;;4940740;29;20188;-78
2023/03/03 03:57:13;;;;;;;31.40;14.70;;;;;;;;;;4936455;29;20686;-77
2023/03/03 03:59:38;;;;;;;32.83;14.93;;;;;;;;;;4941382;29;20205;-78
2023/03/03 04:02:03;;;;;;;33.13;14.87;;;;;;;;;;4936344;29;20209;-78
2023/03/03 04:04:28;;;;;;;34.73;14.30;;;;;;;;;;4936689;29;20197;-78
2023/03/03 04:06:53;;;;;;;36.17;15.33;;;;;;;;;;4941279;29;20185;-76
2023/03/03 04:09:19;;;;;;;34.27;14.33;;;;;;;;;;4938595;29;20205;-76
2023/03/03 04:11:44;;;;;;;33.40;15.00;;;;;;;;;;4939115;29;20182;-79
2023/03/03 04:14:09;;;;;;;28.80;14.07;;;;;;;;;;4938050;29;20551;-76
2023/03/03 04:16:34;;;;;;;28.73;13.50;;;;;;;;;;4950667;28;20192;-77
2023/03/03 04:18:59;;;;;;;25.93;12.77;;;;;;;;;;4936605;29;20220;-77
2023/03/03 04:21:25;;;;;;;22.80;10.97;;;;;;;;;;4937994;29;20202;-78
2023/03/03 04:23:52;;;;;;;22.03;11.00;;;;;;;;;;4937039;29;20189;-77
2023/03/03 04:26:17;;;;;;;24.50;10.70;;;;;;;;;;4936255;29;20182;-77
2023/03/03 04:28:43;;;;;;;23.73;11.00;;;;;;;;;;4961343;23;20574;-69
2023/03/03 04:31:08;;;;;;;21.73;10.07;;;;;;;;;;4973855;28;20219;-70
2023/03/03 04:33:34;;;;;;;29.50;10.97;;;;;;;;;;4968910;28;20260;-70
2023/03/03 04:35:59;;;;;;;18.60;9.37;;;;;;;;;;4973671;28;20282;-70
2023/03/03 04:38:25;;;;;;;24.47;9.97;;;;;;;;;;4973542;28;20179;-70
2023/03/03 04:40:50;;;;;;;20.67;9.43;;;;;;;;;;4972298;28;20207;-70
2023/03/03 04:43:15;;;;;;;22.97;11.43;;;;;;;;;;4972447;28;20634;-70
2023/03/03 04:45:40;;;;;;;19.30;9.77;;;;;;;;;;4965719;28;20214;-70
2023/03/03 04:48:06;;;;;;;20.53;10.13;;;;;;;;;;4964888;28;20180;-70
2023/03/03 04:50:31;;;;;;;23.97;11.17;;;;;;;;;;4970193;28;20676;-70
2023/03/03 04:52:56;;;;;;;19.50;10.50;;;;;;;;;;4972061;28;20263;-70
2023/03/03 04:55:21;;;;;;;22.37;10.30;;;;;;;;;;4962898;28;20190;-69
2023/03/03 04:57:46;;;;;;;27.00;10.43;;;;;;;;;;4971149;28;20176;-70
2023/03/03 05:00:12;;;;;;;22.73;10.40;;;;;;;;;;4974343;28;20211;-70
2023/03/03 05:02:38;;;;;;;20.13;8.97;;;;;;;;;;4962176;28;20627;-71
2023/03/03 05:05:03;;;;;;;23.07;9.87;;;;;;;;;;4970138;28;20576;-69
2023/03/03 05:07:29;;;;;;;19.23;9.63;;;;;;;;;;4962291;28;20176;-71
2023/03/03 05:09:54;;;;;;;25.13;9.57;;;;;;;;;;4967134;28;20610;-70
2023/03/03 05:12:20;;;;;;;25.50;10.53;;;;;;;;;;4970718;28;20192;-70
2023/03/03 05:14:45;;;;;;;26.50;10.20;;;;;;;;;;4970969;28;20203;-70
2023/03/03 05:17:10;;;;;;;26.13;10.27;;;;;;;;;;4966136;28;20176;-70
2023/03/03 05:19:35;;;;;;;23.10;13.40;;;;;;;;;;4972491;28;20210;-70
2023/03/03 05:22:00;;;;;;;25.17;10.93;;;;;;;;;;4964403;28;20181;-71
2023/03/03 05:24:26;;;;;;;24.77;10.83;;;;;;;;;;4984384;28;20592;-70
2023/03/03 05:26:51;;;;;;;23.23;10.60;;;;;;;;;;4973280;28;20168;-70
2023/03/03 05:29:17;;;;;;;26.57;11.20;;;;;;;;;;4972952;28;20351;-70
2023/03/03 05:31:42;;;;;;;28.63;10.50;;;;;;;;;;4972910;28;20184;-70
2023/03/03 05:34:07;;;;;;;26.53;11.20;;;;;;;;;;4971620;28;20188;-70
2023/03/03 05:36:32;;;;;;;29.43;11.93;;;;;;;;;;4967115;28;20568;-70
2023/03/03 05:38:58;;;;;;;26.87;12.60;;;;;;;;;;4963115;28;20207;-70
2023/03/03 05:41:23;;;;;;;29.63;11.83;;;;;;;;;;4972636;28;20181;-70
2023/03/03 05:43:48;;;;;;;28.27;11.77;;;;;;;;;;4971547;28;20173;-70
2023/03/03 05:46:13;;;;;;;24.40;11.97;;;;;;;;;;4971460;28;20191;-70
2023/03/03 05:48:39;;;;;;;24.43;11.93;;;;;;;;;;4972858;28;20646;-70
2023/03/03 05:51:04;;;;;;;29.70;11.50;;;;;;;;;;4987256;28;20274;-70
2023/03/03 05:53:29;;;;;;;25.80;10.53;;;;;;;;;;4967996;28;20568;-70
2023/03/03 05:55:54;;;;;;;25.60;10.57;;;;;;;;;;4978043;28;20180;-72
2023/03/03 05:58:20;;;;;;;24.30;11.73;;;;;;;;;;4972534;28;20251;-70
2023/03/03 06:00:45;;;;;;;24.30;11.33;;;;;;;;;;4972570;28;20207;-70
2023/03/03 06:03:10;;;;;;;29.70;11.20;;;;;;;;;;4987485;28;20173;-70
2023/03/03 06:05:35;;;;;;;23.30;11.17;;;;;;;;;;4970894;28;20183;-70
2023/03/03 06:08:00;;;;;;;20.80;9.30;;;;;;;;;;4987617;28;20172;-70
2023/03/03 06:10:26;;;;;;;22.87;10.70;;;;;;;;;;4966971;28;20289;-70
2023/03/03 06:12:51;;;;;;;23.77;9.50;;;;;;;;;;4963924;28;20180;-70
2023/03/03 06:15:16;;;;;;;22.07;10.47;;;;;;;;;;4972678;28;20181;-70
2023/03/03 06:17:41;;;;;;;21.10;9.37;;;;;;;;;;4972430;28;20176;-70
2023/03/03 06:20:07;;;;;;;24.03;10.07;;;;;;;;;;4970735;28;20567;-69
2023/03/03 06:22:32;;;;;;;21.60;10.33;;;;;;;;;;4981363;28;20720;-70
2023/03/03 06:24:57;;;;;;;22.37;10.87;;;;;;;;;;4969438;28;20176;-70
2023/03/03 06:27:23;;;;;;;21.57;10.83;;;;;;;;;;4956443;28;20643;-70
2023/03/03 06:29:48;;;;;;;23.50;10.07;;;;;;;;;;4969424;28;20230;-70
2023/03/03 06:32:13;;;;;;;19.40;8.57;;;;;;;;;;4971786;28;20652;-70
2023/03/03 06:34:38;;;;;;;18.07;9.47;;;;;;;;;;4971951;28;20196;-70
2023/03/03 06:37:04;;;;;;;21.37;9.97;;;;;;;;;;4970984;28;20192;-70
2023/03/03 06:39:29;;;;;;;18.60;9.60;;;;;;;;;;4971826;28;20211;-70
2023/03/03 06:41:54;;;;;;;20.00;10.17;;;;;;;;;;4971016;28;20211;-70
2023/03/03 06:44:19;;;;;;;18.73;10.80;;;;;;;;;;4965189;28;20570;-70
2023/03/03 06:46:45;;;;;;;22.53;9.93;;;;;;;;;;4960043;28;20252;-70
2023/03/03 06:49:10;;;;;;;25.10;10.03;;;;;;;;;;4957234;28;20342;-70
2023/03/03 06:51:38;;;;;;;19.43;10.83;;;;;;;;;;4975884;28;20220;-70
2023/03/03 06:54:11;;;;;;;21.73;10.63;;;;;;;;;;4975345;28;20271;-70
2023/03/03 06:56:37;;;;;;;23.23;10.47;;;;;;;;;;4971734;28;20319;-70
2023/03/03 06:59:09;;;;;;;23.73;10.13;;;;;;;;;;4964855;28;20302;-70
2023/03/03 07:01:35;;;;;;;21.70;10.40;;;;;;;;;;4956978;28;20595;-70
2023/03/03 07:04:01;;;;;;;21.13;10.40;;;;;;;;;;4969924;28;20212;-70
2023/03/03 07:06:27;;;;;;;19.80;10.30;;;;;;;;;;4959740;28;20235;-70
2023/03/03 07:08:53;;;;;;;22.50;10.43;;;;;;;;;;4968136;28;20208;-70
2023/03/03 07:11:20;;;;;;;19.57;9.23;;;;;;;;;;4966010;28;20180;-70
2023/03/03 07:13:49;;;;;;;19.07;10.47;;;;;;;;;;4968065;28;20180;-70
2023/03/03 07:16:15;;;;;;;21.50;10.27;;;;;;;;;;4965808;28;20673;-70
2023/03/03 07:18:55;;;;;;;23.77;10.53;;;;;;;;;;4962479;28;20169;-70
2023/03/03 07:21:21;;;;;;;19.83;10.47;;;;;;;;;;4974386;28;20570;-70
2023/03/03 07:23:47;;;;;;;25.03;11.73;;;;;;;;;;4971748;28;20177;-70
2023/03/03 07:26:24;;;;;;;23.43;10.97;;;;;;;;;;4963749;28;20249;-70
2023/03/03 07:28:57;;;;;;;19.33;9.93;;;;;;;;;;4968043;28;20299;-70
2023/03/03 07:31:29;;;;;;;24.27;11.33;;;;;;;;;;4975052;28;20259;-70
2023/03/03 07:33:55;;;;;;;22.50;10.97;;;;;;;;;;4975234;28;20179;-71
2023/03/03 07:36:25;;;;;;;22.00;11.10;;;;;;;;;;4974780;28;20172;-71
2023/03/03 07:38:54;;;;;;;22.30;10.53;;;;;;;;;;4967561;28;20212;-71
2023/03/03 07:41:22;;;;;;;20.90;10.30;;;;;;;;;;4963782;28;20647;-71
2023/03/03 07:43:53;;;;;;;23.27;10.17;;;;;;;;;;4974713;28;20175;-71
2023/03/03 07:46:38;;;;;;;21.23;9.87;;;;;;;;;;4974613;28;20169;-71
2023/03/03 07:49:11;;;;;;;18.53;10.27;;;;;;;;;;4973645;28;20207;-71
2023/03/03 07:51:40;;;;;;;18.10;8.90;;;;;;;;;;4974340;28;20190;-71
2023/03/03 07:54:12;;;;;;;17.87;9.20;;;;;;;;;;4971936;28;20184;-71
2023/03/03 07:56:37;;;;;;;19.63;9.27;;;;;;;;;;4963781;28;20654;-71
2023/03/03 07:59:14;;;;;;;17.40;8.83;;;;;;;;;;4971478;28;20208;-71
2023/03/03 08:01:42;;;;;;;17.63;8.77;;;;;;;;;;4972349;28;20187;-71
2023/03/03 08:04:23;;;;;;;21.10;9.53;;;;;;;;;;4977642;28;20180;-70
2023/03/03 08:06:56;;;;;;;16.67;9.23;;;;;;;;;;4978973;28;20219;-70
2023/03/03 08:09:38;;;;;;;18.63;10.33;;;;;;;;;;4976458;28;20193;-70
2023/03/03 08:12:06;;;;;;;20.60;10.03;;;;;;;;;;4968066;28;20188;-70
2023/03/03 08:14:35;;;;;;;18.47;9.37;;;;;;;;;;4965292;28;20602;-70
2023/03/03 08:17:01;;;;;;;20.17;9.60;;;;;;;;;;4972353;28;20172;-70
2023/03/03 08:19:28;;;;;;;20.27;9.13;;;;;;;;;;4972805;28;20591;-71
2023/03/03 08:21:59;;;;;;;14.27;7.73;;;;;;;;;;4973894;28;20544;-70
2023/03/03 08:24:24;;;;;;;16.57;8.23;;;;;;;;;;4971223;28;20181;-70
2023/03/03 08:26:50;;;;;;;14.67;8.00;;;;;;;;;;4976473;28;20171;-70
2023/03/03 08:29:15;;;;;;;12.93;7.80;;;;;;;;;;4964088;28;20224;-70
2023/03/03 08:31:41;;;;;;;14.90;7.80;;;;;;;;;;4964074;28;20181;-70
2023/03/03 08:34:06;;;;;;;11.67;6.30;;;;;;;;;;4971650;28;20552;-70
2023/03/03 08:36:31;;;;;;;14.93;7.33;;;;;;;;;;4973290;28;20184;-70
2023/03/03 08:38:56;;;;;;;13.00;6.43;;;;;;;;;;4973725;28;20211;-70
2023/03/03 08:41:21;;;;;;;12.67;8.10;;;;;;;;;;4968844;28;20199;-70
2023/03/03 08:43:47;;;;;;;11.67;7.03;;;;;;;;;;4964709;28;20189;-70
2023/03/03 08:46:12;;;;;;;14.10;7.00;;;;;;;;;;4962916;28;20260;-70
2023/03/03 08:48:37;;;;;;;12.73;6.77;;;;;;;;;;4965742;28;20216;-70
2023/03/03 08:51:03;;;;;;;13.00;6.90;;;;;;;;;;4973418;28;20188;-70
2023/03/03 08:53:28;;;;;;;13.50;6.50;;;;;;;;;;4971913;28;20187;-71
2023/03/03 08:55:54;;;;;;;11.87;6.10;;;;;;;;;;4972869;28;20610;-70
2023/03/03 08:58:20;;;;;;;7.73;5.40;;;;;;;;;;4965088;28;20227;-70
2023/03/03 09:00:46;;;;;;;10.27;5.73;;;;;;;;;;4962177;28;20204;-71
2023/03/03 09:03:11;;;;;;;13.10;5.07;;;;;;;;;;4971013;28;20188;-71
2023/03/03 09:05:37;;;;;;;10.97;5.10;;;;;;;;;;4964896;28;20737;-71
2023/03/03 09:08:02;;;;;;;9.00;5.60;;;;;;;;;;4967491;28;20188;-71
2023/03/03 09:10:29;;;;;;;9.03;5.13;;;;;;;;;;4972942;28;20204;-71
2023/03/03 09:13:00;;;;;;;8.87;5.30;;;;;;;;;;4966504;28;20631;-69
2023/03/03 09:15:33;;;;;;;10.13;4.93;;;;;;;;;;4967148;28;20746;-70
2023/03/03 09:18:12;;;;;;;9.30;4.83;;;;;;;;;;4964567;28;20216;-72
2023/03/03 09:20:38;;;;;;;8.50;5.00;;;;;;;;;;4966192;28;20208;-71
2023/03/03 09:23:22;;;;;;;9.93;5.30;;;;;;;;;;4979503;28;20180;-70
2023/03/03 09:25:48;;;;;;;6.53;4.40;;;;;;;;;;4966559;28;20196;-71
2023/03/03 09:28:23;;;;;;;9.10;4.30;;;;;;;;;;4959865;28;20180;-70
2023/03/03 09:30:49;;;;;;;6.67;4.63;;;;;;;;;;4964911;28;20211;-70
2023/03/03 09:33:26;;;;;;;6.20;4.73;;;;;;;;;;4964963;28;20192;-70
2023/03/03 09:35:53;;;;;;;7.10;4.50;;;;;;;;;;4972345;28;20209;-70
2023/03/03 09:38:18;;;;;;;8.70;4.87;;;;;;;;;;4972629;28;20216;-70
2023/03/03 09:40:43;;;;;;;7.27;5.27;;;;;;;;;;4971170;28;20270;-71
2023/03/03 09:43:16;;;;;;;9.20;4.63;;;;;;;;;;4972375;28;20185;-69
2023/03/03 09:45:44;;;;;;;9.07;5.67;;;;;;;;;;4968367;28;20189;-70
2023/03/03 09:48:18;;;;;;;6.60;4.23;;;;;;;;;;4966442;28;20180;-70
2023/03/03 09:50:46;;;;;;;10.23;5.10;;;;;;;;;;4972341;28;20204;-71
2023/03/03 09:53:18;;;;;;;8.83;4.87;;;;;;;;;;4972345;28;20551;-71
2023/03/03 09:55:49;;;;;;;9.03;4.30;;;;;;;;;;4971808;28;20279;-70
2023/03/03 09:58:33;;;;;;;4.77;3.57;;;;;;;;;;4964821;28;20189;-71
2023/03/03 10:01:04;;;;;;;7.93;4.90;;;;;;;;;;4959762;28;20220;-71
2023/03/03 10:03:48;;;;;;;8.67;4.70;;;;;;;;;;4965843;28;20186;-71
2023/03/03 10:06:13;;;;;;;6.03;4.17;;;;;;;;;;4967736;28;20191;-70
2023/03/03 10:08:57;;;;;;;6.53;3.40;;;;;;;;;;4971859;28;20180;-71
2023/03/03 10:11:57;;;;;;;5.57;3.80;;;;;;;;;;4966348;28;20192;-70
2023/03/03 10:14:32;;;;;;;6.00;3.87;;;;;;;;;;4911767;29;20209;-71
2023/03/03 10:16:57;;;;;;;5.93;3.40;;;;;;;;;;4955432;28;20194;-70
2023/03/03 10:19:29;;;;;;;8.87;5.03;;;;;;;;;;4987102;28;20207;-70
2023/03/03 10:22:19;;;;;;;5.30;3.63;;;;;;;;;;4975637;28;20234;-69
2023/03/03 10:24:53;;;;;;;13.23;3.80;;;;;;;;;;4966530;28;20212;-69
2023/03/03 10:27:37;;;;;;;7.00;3.93;;;;;;;;;;4975382;28;20177;-70
2023/03/03 10:30:07;;;;;;;6.77;4.07;;;;;;;;;;4987693;23;20713;-77
2023/03/03 10:32:47;;;;;;;7.70;3.77;;;;;;;;;;4996238;28;20183;-77
2023/03/03 10:35:31;;;;;;;8.50;4.57;;;;;;;;;;4994795;28;20171;-77
2023/03/03 10:38:03;;;;;;;7.33;3.63;;;;;;;;;;4997944;28;20176;-77
2023/03/03 10:40:28;;;;;;;8.13;3.67;;;;;;;;;;4999316;28;20397;-79
2023/03/03 10:43:00;;;;;;;5.40;3.27;;;;;;;;;;5006704;28;20174;-78
2023/03/03 10:45:30;;;;;;;6.97;3.10;;;;;;;;;;5003203;28;20195;-78
2023/03/03 10:48:14;;;;;;;5.40;3.60;;;;;;;;;;4995134;28;20251;-78
2023/03/03 10:50:53;;;;;;;6.37;3.70;;;;;;;;;;5004672;28;20274;-77
2023/03/03 10:53:27;;;;;;;5.90;2.63;;;;;;;;;;5005363;28;20691;-79
2023/03/03 10:56:05;;;;;;;4.43;3.17;;;;;;;;;;5005559;28;20641;-79
2023/03/03 10:58:49;;;;;;;3.88;2.97;;;;;;;;;;4995454;28;20199;-77
2023/03/03 11:01:37;;;;;;;4.72;2.92;;;;;;;;;;5004728;28;20498;-79
2023/03/03 11:04:06;;;;;;;4.45;2.97;;;;;;;;;;4995600;28;20765;-78
2023/03/03 11:06:34;;;;;;;5.78;3.75;;;;;;;;;;5009699;28;20185;-79
2023/03/03 11:09:05;;;;;;;6.30;2.67;;;;;;;;;;5003813;28;20168;-78
2023/03/03 11:11:35;;;;;;;4.47;2.50;;;;;;;;;;5001201;28;20557;-78
2023/03/03 11:14:19;;;;;;;4.68;2.70;;;;;;;;;;4994457;28;20176;-78
2023/03/03 11:16:46;;;;;;;3.57;2.30;;;;;;;;;;4995878;28;20630;-78
2023/03/03 11:19:31;;;;;;;5.83;2.77;;;;;;;;;;4994685;28;20211;-78
2023/03/03 11:22:09;;;;;;;5.77;2.63;;;;;;;;;;4992892;28;20669;-78
2023/03/03 11:24:37;;;;;;;3.07;2.20;;;;;;;;;;4997128;28;20179;-78
2023/03/03 11:27:02;;;;;;;4.53;2.17;;;;;;;;;;4986825;28;20212;-78
2023/03/03 11:29:46;;;;;;;4.30;1.97;;;;;;;;;;4980965;28;20251;-78
2023/03/03 11:32:24;;;;;;;4.73;1.73;;;;;;;;;;4988329;28;20234;-80
2023/03/03 11:34:49;;;;;;;2.20;1.90;;;;;;;;;;4994640;28;20297;-79
2023/03/03 11:37:33;;;;;;;3.43;2.00;;;;;;;;;;4994030;28;20708;-77
2023/03/03 11:40:01;;;;;;;2.57;1.80;;;;;;;;;;4993383;28;20211;-77
2023/03/03 11:42:53;;;;;;;4.23;2.57;;;;;;;;;;4986840;28;20176;-77
2023/03/03 11:45:26;;;;;;;3.87;2.10;;;;;;;;;;4961501;28;20291;-78
2023/03/03 11:47:57;;;;;;;5.57;1.90;;;;;;;;;;4996106;28;20215;-78
2023/03/03 11:50:37;;;;;;;4.50;1.70;;;;;;;;;;4995363;28;20591;-78
2023/03/03 11:53:23;;;;;;;2.10;1.70;;;;;;;;;;4994221;28;20604;-77
2023/03/03 11:55:53;;;;;;;3.00;1.67;;;;;;;;;;4985677;28;20513;-78
2023/03/03 11:58:21;;;;;;;5.18;1.70;;;;;;;;;;4985911;28;20803;-79
2023/03/03 12:00:50;;;;;;;2.75;1.70;;;;;;;;;;4992571;28;20218;-79
2023/03/03 12:03:51;;;;;;;3.67;1.90;;;;;;;;;;4993989;28;20172;-77
2023/03/03 12:06:16;;;;;;;2.92;1.60;;;;;;;;;;4953367;29;20567;-76
2023/03/03 12:08:47;;;;;;;2.70;1.40;;;;;;;;;;4986532;28;20215;-77
2023/03/03 12:11:16;;;;;;;1.75;1.33;;;;;;;;;;4986055;28;20211;-77
2023/03/03 12:13:41;;;;;;;3.45;1.45;;;;;;;;;;4984704;28;20428;-76
2023/03/03 12:16:11;;;;;;;4.43;1.75;;;;;;;;;;4993688;28;20175;-77
2023/03/03 12:18:57;;;;;;;2.38;1.25;;;;;;;;;;4997641;28;20179;-77
2023/03/03 12:21:40;;;;;;;2.38;1.35;;;;;;;;;;4994001;28;20682;-76
2023/03/03 12:24:05;;;;;;;1.65;1.00;;;;;;;;;;4992571;28;20175;-76
2023/03/03 12:26:35;;;;;;;1.65;0.90;;;;;;;;;;4987596;28;20179;-77
2023/03/03 12:29:05;;;;;;;2.90;1.42;;;;;;;;;;4993967;28;20183;-77
2023/03/03 12:31:39;;;;;;;4.20;1.23;;;;;;;;;;4994145;28;20176;-77
2023/03/03 12:34:07;;;;;;;1.35;1.05;;;;;;;;;;4992177;28;20661;-78
2023/03/03 12:36:44;;;;;;;1.40;0.95;;;;;;;;;;4984908;28;20454;-78
2023/03/03 12:39:29;;;;;;;1.52;0.88;;;;;;;;;;4995552;28;20219;-78
2023/03/03 12:42:03;;;;;;;13.13;2.35;;;;;;;;;;4995867;28;20206;-78
2023/03/03 12:44:42;;;;;;;2.17;1.00;;;;;;;;;;4984458;28;20176;-78
2023/03/03 12:47:26;;;;;;;2.60;1.00;;;;;;;;;;4993809;28;20214;-77
2023/03/03 12:49:51;;;;;;;2.38;1.08;;;;;;;;;;4991942;28;20195;-77
2023/03/03 12:52:19;;;;;;;3.88;1.48;;;;;;;;;;4991175;28;20611;-78
2023/03/03 12:54:47;;;;;;;2.20;1.50;;;;;;;;;;4984670;28;20171;-77
2023/03/03 12:57:22;;;;;;;1.33;1.20;;;;;;;;;;4992812;28;20188;-78
2023/03/03 12:59:53;;;;;;;2.35;1.20;;;;;;;;;;4983041;28;20265;-77
2023/03/03 13:02:39;;;;;;;1.65;1.05;;;;;;;;;;4991269;28;20190;-77
2023/03/03 13:05:13;;;;;;;3.47;1.45;;;;;;;;;;4987695;28;20491;-77
2023/03/03 13:07:50;;;;;;;3.75;1.35;;;;;;;;;;4985817;28;20186;-77
2023/03/03 13:10:24;;;;;;;3.90;1.55;;;;;;;;;;4983535;28;20199;-77
2023/03/03 13:12:49;;;;;;;3.05;1.30;;;;;;;;;;4982330;28;20656;-77
2023/03/03 13:15:18;;;;;;;2.78;1.25;;;;;;;;;;4989590;28;20240;-77
2023/03/03 13:17:52;;;;;;;3.15;1.27;;;;;;;;;;4999976;28;20570;-77
2023/03/03 13:20:29;;;;;;;3.25;1.20;;;;;;;;;;4988403;28;20214;-77
2023/03/03 13:23:05;;;;;;;2.92;1.17;;;;;;;;;;4992010;28;20637;-79
2023/03/03 13:25:37;;;;;;;3.70;1.60;;;;;;;;;;4986536;28;20183;-76
2023/03/03 13:28:09;;;;;;;2.25;1.10;;;;;;;;;;4976196;28;20199;-76
2023/03/03 13:30:37;;;;;;;3.45;1.23;;;;;;;;;;5019235;28;20215;-77
2023/03/03 13:33:37;;;;;;;1.40;0.93;;;;;;;;;;4991848;28;20175;-77
2023/03/03 13:36:10;;;;;;;3.00;1.13;;;;;;;;;;4937149;29;20613;-77
2023/03/03 13:38:38;;;;;;;1.55;1.10;;;;;;;;;;4986205;28;20192;-77
2023/03/03 13:41:03;;;;;;;1.52;0.90;;;;;;;;;;4982188;28;20577;-78
2023/03/03 13:43:31;;;;;;;4.85;1.40;;;;;;;;;;4992853;28;20179;-77
2023/03/03 13:46:00;;;;;;;2.60;0.80;;;;;;;;;;4988137;28;20183;-78
2023/03/03 13:48:35;;;;;;;1.60;0.80;;;;;;;;;;4993696;28;20176;-78
2023/03/03 13:51:10;;;;;;;2.38;0.82;;;;;;;;;;4992927;28;20207;-78
2023/03/03 13:53:44;;;;;;;1.73;1.05;;;;;;;;;;4991869;28;20177;-78
2023/03/03 13:56:21;;;;;;;1.25;0.77;;;;;;;;;;4985708;28;20258;-78
2023/03/03 13:58:50;;;;;;;1.30;1.00;;;;;;;;;;4981495;28;20176;-78
2023/03/03 14:01:22;;;;;;;1.52;0.70;;;;;;;;;;4987213;28;20184;-77
2023/03/03 14:03:56;;;;;;;2.30;0.93;;;;;;;;;;4992234;28;20203;-75
2023/03/03 14:06:23;;;;;;;1.17;0.80;;;;;;;;;;4988788;28;20215;-78
2023/03/03 14:08:58;;;;;;;1.55;0.75;;;;;;;;;;4985590;28;20171;-77
2023/03/03 14:11:29;;;;;;;2.83;0.82;;;;;;;;;;4990309;28;20175;-77
2023/03/03 14:13:54;;;;;;;1.90;1.25;;;;;;;;;;4990118;28;20183;-78
2023/03/03 14:16:29;;;;;;;4.25;0.80;;;;;;;;;;4992324;28;20241;-78
2023/03/03 14:19:01;;;;;;;2.58;0.63;;;;;;;;;;4991968;28;20566;-78
2023/03/03 14:21:30;;;;;;;1.10;0.70;;;;;;;;;;4984528;28;20180;-78
2023/03/03 14:24:05;;;;;;;1.83;1.10;;;;;;;;;;4979881;28;20208;-78
2023/03/03 14:26:30;;;;;;;1.23;0.80;;;;;;;;;;4989439;28;20186;-78
2023/03/03 14:29:14;;;;;;;0.68;0.60;;;;;;;;;;4991292;28;20175;-78
2023/03/03 14:31:42;;;;;;;0.85;0.65;;;;;;;;;;4992129;28;20190;-77
2023/03/03 14:34:10;;;;;;;3.03;1.55;;;;;;;;;;4985692;28;20180;-77
2023/03/03 14:36:37;;;;;;;1.00;0.73;;;;;;;;;;4986202;28;20689;-77
2023/03/03 14:39:22;;;;;;;2.13;0.82;;;;;;;;;;4992737;28;20211;-77
2023/03/03 14:41:48;;;;;;;2.85;0.98;;;;;;;;;;4990211;28;20163;-76